AAL2 VAAH-VNKT
Flight info
| Callsign | AAL2 |
|---|---|
| Flight time | 1h 52m |
| Altitude | 35000 |
| Route | BODAR1A BODAR G590 BPL W68 BOBET G590 SMR SMR |
| Aircraft | A320/M-SDE3FGHIRWY/LB1 |
Departure
| Time | 2026-04-24 10:22 |
|---|---|
| Airport | Sardar Vallabh Patel International Airport (VAAH) |
Arrival
| Time | 2026-04-24 12:14 |
|---|---|
| Airport | Tribhuvan International Airport (VNKT) |
| Time | Latitude | Longitude | Altitude | Speed | Heading |
|---|---|---|---|---|---|
| 2026-04-24 09:58 | 23.07531 | 72.62607 | 203 ft | 0 kts | 316° |
| 2026-04-24 10:09 | 23.07518 | 72.62620 | 203 ft | 4 kts | 319° |
| 2026-04-24 10:09 | 23.07497 | 72.62639 | 193 ft | 4 kts | 324° |
| 2026-04-24 10:10 | 23.07474 | 72.62653 | 191 ft | 4 kts | 343° |
| 2026-04-24 10:10 | 23.07452 | 72.62655 | 194 ft | 3 kts | 41° |
| 2026-04-24 10:10 | 23.07446 | 72.62649 | 202 ft | 0 kts | 46° |
| 2026-04-24 10:15 | 23.07447 | 72.62650 | 202 ft | 2 kts | 46° |
| 2026-04-24 10:15 | 23.07483 | 72.62691 | 191 ft | 10 kts | 46° |
| 2026-04-24 10:15 | 23.07528 | 72.62744 | 186 ft | 9 kts | 56° |
| 2026-04-24 10:15 | 23.07533 | 72.62771 | 192 ft | 0 kts | 89° |
| 2026-04-24 10:16 | 23.07532 | 72.62779 | 195 ft | 3 kts | 99° |
| 2026-04-24 10:16 | 23.07514 | 72.62807 | 206 ft | 6 kts | 129° |
| 2026-04-24 10:16 | 23.07475 | 72.62853 | 197 ft | 11 kts | 133° |
| 2026-04-24 10:16 | 23.07470 | 72.62934 | 197 ft | 15 kts | 37° |
| 2026-04-24 10:17 | 23.07556 | 72.63016 | 193 ft | 16 kts | 44° |
| 2026-04-24 10:17 | 23.07631 | 72.63096 | 199 ft | 16 kts | 44° |
| 2026-04-24 10:17 | 23.07724 | 72.63192 | 203 ft | 21 kts | 43° |
| 2026-04-24 10:17 | 23.07845 | 72.63320 | 195 ft | 27 kts | 45° |
| 2026-04-24 10:18 | 23.07969 | 72.63494 | 188 ft | 31 kts | 49° |
| 2026-04-24 10:18 | 23.08123 | 72.63661 | 191 ft | 32 kts | 44° |
| 2026-04-24 10:18 | 23.08282 | 72.63831 | 191 ft | 32 kts | 44° |
| 2026-04-24 10:18 | 23.08439 | 72.63999 | 204 ft | 32 kts | 44° |
| 2026-04-24 10:19 | 23.08560 | 72.64129 | 199 ft | 17 kts | 46° |
| 2026-04-24 10:19 | 23.08601 | 72.64207 | 196 ft | 11 kts | 96° |
| 2026-04-24 10:19 | 23.08562 | 72.64268 | 203 ft | 8 kts | 129° |
| 2026-04-24 10:19 | 23.08540 | 72.64316 | 202 ft | 9 kts | 82° |
| 2026-04-24 10:20 | 23.08617 | 72.64401 | 196 ft | 24 kts | 44° |
| 2026-04-24 10:20 | 23.08761 | 72.64556 | 191 ft | 28 kts | 44° |
| 2026-04-24 10:20 | 23.08853 | 72.64605 | 189 ft | 11 kts | 67° |
| 2026-04-24 10:20 | 23.08818 | 72.64616 | 194 ft | 6 kts | 220° |
| 2026-04-24 10:21 | 23.08802 | 72.64601 | 199 ft | 12 kts | 221° |
| 2026-04-24 10:21 | 23.08566 | 72.64346 | 200 ft | 82 kts | 224° |
| 2026-04-24 10:21 | 23.08017 | 72.63760 | 199 ft | 138 kts | 225° |
| 2026-04-24 10:21 | 23.07217 | 72.62909 | 244 ft | 177 kts | 227° |
| 2026-04-24 10:22 | 23.06302 | 72.62012 | 848 ft | 180 kts | 216° |
| 2026-04-24 10:22 | 23.05176 | 72.61384 | 1495 ft | 185 kts | 200° |
| 2026-04-24 10:22 | 23.03895 | 72.61127 | 2079 ft | 194 kts | 184° |
| 2026-04-24 10:22 | 23.02477 | 72.61307 | 2322 ft | 217 kts | 165° |
| 2026-04-24 10:23 | 23.01058 | 72.62058 | 2515 ft | 238 kts | 145° |
| 2026-04-24 10:23 | 22.99798 | 72.63328 | 2679 ft | 263 kts | 136° |
| 2026-04-24 10:23 | 22.98454 | 72.64771 | 2965 ft | 279 kts | 137° |
| 2026-04-24 10:23 | 22.97063 | 72.66254 | 3001 ft | 280 kts | 137° |
| 2026-04-24 10:24 | 22.95678 | 72.67726 | 3003 ft | 278 kts | 137° |
| 2026-04-24 10:24 | 22.94292 | 72.69199 | 3004 ft | 279 kts | 136° |
| 2026-04-24 10:24 | 22.92913 | 72.70672 | 3002 ft | 279 kts | 136° |
| 2026-04-24 10:24 | 22.91531 | 72.72150 | 3003 ft | 280 kts | 137° |
| 2026-04-24 10:25 | 22.90144 | 72.73633 | 3003 ft | 279 kts | 136° |
| 2026-04-24 10:25 | 22.88764 | 72.75111 | 3002 ft | 279 kts | 137° |
| 2026-04-24 10:25 | 22.87575 | 72.76775 | 3002 ft | 281 kts | 117° |
| 2026-04-24 10:25 | 22.87001 | 72.78816 | 3396 ft | 286 kts | 100° |
| 2026-04-24 10:26 | 22.86642 | 72.80929 | 4232 ft | 285 kts | 101° |
| 2026-04-24 10:26 | 22.86259 | 72.83047 | 4977 ft | 287 kts | 101° |
| 2026-04-24 10:26 | 22.85863 | 72.85182 | 5679 ft | 290 kts | 102° |
| 2026-04-24 10:26 | 22.85462 | 72.87337 | 6407 ft | 293 kts | 102° |
| 2026-04-24 10:27 | 22.85060 | 72.89507 | 7109 ft | 295 kts | 102° |
| 2026-04-24 10:27 | 22.84660 | 72.91698 | 7772 ft | 299 kts | 101° |
| 2026-04-24 10:27 | 22.84256 | 72.93919 | 8454 ft | 301 kts | 101° |
| 2026-04-24 10:27 | 22.83848 | 72.96158 | 9166 ft | 304 kts | 101° |
| 2026-04-24 10:28 | 22.83439 | 72.98413 | 9844 ft | 306 kts | 101° |
| 2026-04-24 10:28 | 22.83019 | 73.00739 | 10115 ft | 325 kts | 101° |
| 2026-04-24 10:28 | 22.82568 | 73.03227 | 10241 ft | 347 kts | 101° |
| 2026-04-24 10:28 | 22.82088 | 73.05875 | 10376 ft | 367 kts | 101° |
| 2026-04-24 10:29 | 22.81589 | 73.08623 | 10800 ft | 375 kts | 101° |
| 2026-04-24 10:29 | 22.81082 | 73.11416 | 11359 ft | 379 kts | 101° |
| 2026-04-24 10:29 | 22.80571 | 73.14228 | 11989 ft | 381 kts | 101° |
| 2026-04-24 10:29 | 22.80055 | 73.17051 | 12603 ft | 383 kts | 101° |
| 2026-04-24 10:30 | 22.79533 | 73.19893 | 13208 ft | 385 kts | 101° |
| 2026-04-24 10:30 | 22.79011 | 73.22738 | 13802 ft | 386 kts | 101° |
| 2026-04-24 10:30 | 22.78490 | 73.25596 | 14345 ft | 387 kts | 100° |
| 2026-04-24 10:30 | 22.77973 | 73.28432 | 14854 ft | 390 kts | 101° |
| 2026-04-24 10:31 | 22.77443 | 73.31319 | 15381 ft | 392 kts | 101° |
| 2026-04-24 10:31 | 22.76909 | 73.34220 | 15891 ft | 394 kts | 101° |
| 2026-04-24 10:31 | 22.76373 | 73.37144 | 16409 ft | 396 kts | 101° |
| 2026-04-24 10:31 | 22.75834 | 73.40078 | 16921 ft | 399 kts | 101° |
| 2026-04-24 10:32 | 22.75290 | 73.43032 | 17438 ft | 401 kts | 101° |
| 2026-04-24 10:32 | 22.74744 | 73.46000 | 17969 ft | 403 kts | 101° |
| 2026-04-24 10:32 | 22.74192 | 73.48988 | 18418 ft | 405 kts | 101° |
| 2026-04-24 10:32 | 22.73639 | 73.51988 | 18858 ft | 408 kts | 101° |
| 2026-04-24 10:33 | 22.73084 | 73.55013 | 19300 ft | 411 kts | 101° |
| 2026-04-24 10:33 | 22.72523 | 73.58062 | 19727 ft | 414 kts | 101° |
| 2026-04-24 10:33 | 22.71957 | 73.61126 | 20147 ft | 417 kts | 101° |
| 2026-04-24 10:33 | 22.71385 | 73.64215 | 20563 ft | 420 kts | 101° |
| 2026-04-24 10:34 | 22.70805 | 73.67326 | 20985 ft | 423 kts | 101° |
| 2026-04-24 10:34 | 22.70220 | 73.70457 | 21377 ft | 426 kts | 101° |
| 2026-04-24 10:34 | 22.69632 | 73.73615 | 21769 ft | 429 kts | 101° |
| 2026-04-24 10:34 | 22.69042 | 73.76802 | 22170 ft | 432 kts | 101° |
| 2026-04-24 10:35 | 22.68450 | 73.79999 | 22565 ft | 435 kts | 101° |
| 2026-04-24 10:35 | 22.67850 | 73.83222 | 22933 ft | 438 kts | 101° |
| 2026-04-24 10:35 | 22.67239 | 73.86465 | 23324 ft | 440 kts | 101° |
| 2026-04-24 10:35 | 22.66623 | 73.89725 | 23625 ft | 443 kts | 101° |
| 2026-04-24 10:36 | 22.66006 | 73.93004 | 23927 ft | 446 kts | 101° |
| 2026-04-24 10:36 | 22.65387 | 73.96303 | 24275 ft | 447 kts | 101° |
| 2026-04-24 10:36 | 22.64767 | 73.99609 | 24576 ft | 449 kts | 101° |
| 2026-04-24 10:36 | 22.64145 | 74.02928 | 24892 ft | 451 kts | 101° |
| 2026-04-24 10:37 | 22.63522 | 74.06261 | 25212 ft | 452 kts | 101° |
| 2026-04-24 10:37 | 22.62895 | 74.09611 | 25509 ft | 455 kts | 101° |
| 2026-04-24 10:37 | 22.62264 | 74.12971 | 25831 ft | 456 kts | 101° |
| 2026-04-24 10:37 | 22.61631 | 74.16326 | 26193 ft | 456 kts | 101° |
| 2026-04-24 10:38 | 22.61004 | 74.19692 | 26502 ft | 457 kts | 99° |
| 2026-04-24 10:38 | 22.60689 | 74.23113 | 26789 ft | 458 kts | 90° |
| 2026-04-24 10:38 | 22.60835 | 74.26559 | 27051 ft | 459 kts | 85° |
| 2026-04-24 10:38 | 22.61091 | 74.30014 | 27312 ft | 461 kts | 85° |
| 2026-04-24 10:39 | 22.61344 | 74.33478 | 27570 ft | 463 kts | 85° |
| 2026-04-24 10:39 | 22.61595 | 74.36957 | 27820 ft | 464 kts | 85° |
| 2026-04-24 10:39 | 22.61843 | 74.40404 | 28079 ft | 465 kts | 85° |
| 2026-04-24 10:39 | 22.62094 | 74.43898 | 28321 ft | 467 kts | 85° |
| 2026-04-24 10:40 | 22.62344 | 74.47411 | 28545 ft | 468 kts | 85° |
| 2026-04-24 10:40 | 22.62592 | 74.50927 | 28819 ft | 468 kts | 85° |
| 2026-04-24 10:40 | 22.62839 | 74.54438 | 29149 ft | 467 kts | 85° |
| 2026-04-24 10:40 | 22.63086 | 74.57942 | 29476 ft | 466 kts | 85° |
| 2026-04-24 10:41 | 22.63330 | 74.61441 | 29798 ft | 466 kts | 85° |
| 2026-04-24 10:41 | 22.63570 | 74.64931 | 30079 ft | 465 kts | 85° |
| 2026-04-24 10:41 | 22.63811 | 74.68434 | 30315 ft | 466 kts | 85° |
| 2026-04-24 10:41 | 22.64053 | 74.71928 | 30539 ft | 466 kts | 85° |
| 2026-04-24 10:42 | 22.64298 | 74.75430 | 30756 ft | 467 kts | 85° |
| 2026-04-24 10:42 | 22.64547 | 74.78941 | 30969 ft | 468 kts | 85° |
| 2026-04-24 10:42 | 22.64792 | 74.82450 | 31202 ft | 468 kts | 85° |
| 2026-04-24 10:42 | 22.65033 | 74.85977 | 31402 ft | 470 kts | 85° |
| 2026-04-24 10:43 | 22.65270 | 74.89502 | 31635 ft | 470 kts | 86° |
| 2026-04-24 10:43 | 22.65507 | 74.93035 | 31837 ft | 471 kts | 85° |
| 2026-04-24 10:43 | 22.65746 | 74.96570 | 32069 ft | 471 kts | 86° |
| 2026-04-24 10:43 | 22.65986 | 75.00115 | 32295 ft | 472 kts | 85° |
| 2026-04-24 10:44 | 22.66226 | 75.03662 | 32485 ft | 473 kts | 85° |
| 2026-04-24 10:44 | 22.66467 | 75.07214 | 32744 ft | 473 kts | 86° |
| 2026-04-24 10:44 | 22.66710 | 75.10775 | 32905 ft | 475 kts | 86° |
| 2026-04-24 10:44 | 22.66952 | 75.14345 | 33137 ft | 475 kts | 86° |
| 2026-04-24 10:45 | 22.67190 | 75.17917 | 33359 ft | 476 kts | 86° |
| 2026-04-24 10:45 | 22.67424 | 75.21492 | 33619 ft | 476 kts | 86° |
| 2026-04-24 10:45 | 22.67655 | 75.25060 | 33860 ft | 476 kts | 86° |
| 2026-04-24 10:45 | 22.67889 | 75.28637 | 34059 ft | 476 kts | 86° |
| 2026-04-24 10:46 | 22.68127 | 75.32214 | 34265 ft | 476 kts | 86° |
| 2026-04-24 10:46 | 22.68361 | 75.35739 | 34448 ft | 476 kts | 86° |
| 2026-04-24 10:46 | 22.68597 | 75.39320 | 34631 ft | 476 kts | 86° |
| 2026-04-24 10:46 | 22.68829 | 75.42895 | 34793 ft | 477 kts | 86° |
| 2026-04-24 10:47 | 22.69061 | 75.46489 | 34843 ft | 480 kts | 86° |
| 2026-04-24 10:47 | 22.69526 | 75.53716 | 34864 ft | 482 kts | 86° |
| 2026-04-24 10:48 | 22.69912 | 75.59784 | 34857 ft | 482 kts | 86° |
| 2026-04-24 10:48 | 22.70370 | 75.66978 | 34862 ft | 482 kts | 86° |
| 2026-04-24 10:49 | 22.70835 | 75.74218 | 34871 ft | 482 kts | 86° |
| 2026-04-24 10:49 | 22.72299 | 75.81286 | 34869 ft | 483 kts | 68° |
| 2026-04-24 10:50 | 22.74823 | 75.88034 | 34856 ft | 484 kts | 68° |
| 2026-04-24 10:50 | 22.77342 | 75.94802 | 34842 ft | 484 kts | 68° |
| 2026-04-24 10:51 | 22.79851 | 76.01585 | 34848 ft | 485 kts | 68° |
| 2026-04-24 10:51 | 22.82358 | 76.08371 | 34850 ft | 485 kts | 68° |
| 2026-04-24 10:52 | 22.84870 | 76.15156 | 34850 ft | 485 kts | 68° |
| 2026-04-24 10:52 | 22.87382 | 76.21954 | 34833 ft | 486 kts | 68° |
| 2026-04-24 10:53 | 22.89891 | 76.28760 | 34824 ft | 486 kts | 68° |
| 2026-04-24 10:53 | 22.92385 | 76.35524 | 34825 ft | 486 kts | 68° |
| 2026-04-24 10:54 | 22.94891 | 76.42347 | 34828 ft | 487 kts | 68° |
| 2026-04-24 10:54 | 22.97396 | 76.49183 | 34828 ft | 487 kts | 68° |
| 2026-04-24 10:55 | 22.99902 | 76.56015 | 34814 ft | 488 kts | 68° |
| 2026-04-24 10:55 | 23.02413 | 76.62854 | 34812 ft | 488 kts | 68° |
| 2026-04-24 10:56 | 23.04917 | 76.69716 | 34811 ft | 489 kts | 69° |
| 2026-04-24 10:56 | 23.07413 | 76.76578 | 34810 ft | 489 kts | 69° |
| 2026-04-24 10:57 | 23.09908 | 76.83445 | 34809 ft | 489 kts | 69° |
| 2026-04-24 10:57 | 23.12413 | 76.90324 | 34807 ft | 489 kts | 69° |
| 2026-04-24 10:58 | 23.14913 | 76.97207 | 34806 ft | 490 kts | 69° |
| 2026-04-24 10:58 | 23.17430 | 77.04106 | 34805 ft | 491 kts | 68° |
| 2026-04-24 10:59 | 23.19982 | 77.10991 | 34804 ft | 491 kts | 68° |
| 2026-04-24 10:59 | 23.22534 | 77.17885 | 34826 ft | 491 kts | 68° |
| 2026-04-24 11:00 | 23.25061 | 77.24734 | 34822 ft | 491 kts | 68° |
| 2026-04-24 11:00 | 23.27604 | 77.31636 | 34816 ft | 491 kts | 66° |
| 2026-04-24 11:01 | 23.30999 | 77.38065 | 34813 ft | 491 kts | 56° |
| 2026-04-24 11:01 | 23.34768 | 77.44272 | 34813 ft | 491 kts | 56° |
| 2026-04-24 11:02 | 23.38538 | 77.50483 | 34808 ft | 492 kts | 56° |
| 2026-04-24 11:02 | 23.42304 | 77.56702 | 34808 ft | 492 kts | 56° |
| 2026-04-24 11:03 | 23.46075 | 77.62926 | 34803 ft | 493 kts | 56° |
| 2026-04-24 11:03 | 23.49850 | 77.69163 | 34799 ft | 494 kts | 56° |
| 2026-04-24 11:04 | 23.53622 | 77.75427 | 34792 ft | 494 kts | 56° |
| 2026-04-24 11:04 | 23.57399 | 77.81702 | 34797 ft | 495 kts | 56° |
| 2026-04-24 11:05 | 23.61173 | 77.87977 | 34819 ft | 494 kts | 56° |
| 2026-04-24 11:05 | 23.64940 | 77.94240 | 34831 ft | 494 kts | 56° |
| 2026-04-24 11:06 | 23.68702 | 78.00509 | 34805 ft | 494 kts | 56° |
| 2026-04-24 11:06 | 23.72469 | 78.06786 | 34796 ft | 494 kts | 56° |
| 2026-04-24 11:07 | 23.78094 | 78.16168 | 34799 ft | 494 kts | 56° |
| 2026-04-24 11:07 | 23.81849 | 78.22458 | 34786 ft | 494 kts | 56° |
| 2026-04-24 11:08 | 23.85598 | 78.28750 | 34784 ft | 494 kts | 56° |
| 2026-04-24 11:08 | 23.89356 | 78.35054 | 34786 ft | 495 kts | 56° |
| 2026-04-24 11:09 | 23.93120 | 78.41355 | 34791 ft | 495 kts | 56° |
| 2026-04-24 11:09 | 23.96873 | 78.47662 | 34814 ft | 494 kts | 56° |
| 2026-04-24 11:10 | 24.00607 | 78.53959 | 34813 ft | 492 kts | 56° |
| 2026-04-24 11:10 | 24.04315 | 78.60242 | 34814 ft | 491 kts | 56° |
| 2026-04-24 11:11 | 24.08002 | 78.66531 | 34809 ft | 490 kts | 56° |
| 2026-04-24 11:11 | 24.11684 | 78.72817 | 34784 ft | 491 kts | 56° |
| 2026-04-24 11:12 | 24.15373 | 78.79116 | 34775 ft | 491 kts | 56° |
| 2026-04-24 11:12 | 24.19068 | 78.85422 | 34773 ft | 492 kts | 56° |
| 2026-04-24 11:13 | 24.22757 | 78.91735 | 34769 ft | 492 kts | 56° |
| 2026-04-24 11:13 | 24.26422 | 78.98022 | 34766 ft | 493 kts | 56° |
| 2026-04-24 11:14 | 24.30138 | 79.04394 | 34766 ft | 493 kts | 56° |
| 2026-04-24 11:14 | 24.33803 | 79.10675 | 34790 ft | 491 kts | 56° |
| 2026-04-24 11:15 | 24.37470 | 79.16987 | 34790 ft | 490 kts | 56° |
| 2026-04-24 11:15 | 24.41128 | 79.23300 | 34773 ft | 489 kts | 56° |
| 2026-04-24 11:16 | 24.44776 | 79.29596 | 34769 ft | 489 kts | 56° |
| 2026-04-24 11:16 | 24.48418 | 79.35894 | 34767 ft | 488 kts | 56° |
| 2026-04-24 11:17 | 24.52058 | 79.42185 | 34762 ft | 488 kts | 56° |
| 2026-04-24 11:17 | 24.55699 | 79.48478 | 34747 ft | 488 kts | 56° |
| 2026-04-24 11:18 | 24.59340 | 79.54782 | 34740 ft | 488 kts | 56° |
| 2026-04-24 11:18 | 24.62975 | 79.61092 | 34736 ft | 489 kts | 56° |
| 2026-04-24 11:19 | 24.66608 | 79.67420 | 34738 ft | 489 kts | 56° |
| 2026-04-24 11:19 | 24.70235 | 79.73739 | 34733 ft | 488 kts | 56° |
| 2026-04-24 11:20 | 24.73855 | 79.80036 | 34728 ft | 487 kts | 56° |
| 2026-04-24 11:20 | 24.77469 | 79.86341 | 34716 ft | 487 kts | 56° |
| 2026-04-24 11:21 | 24.80570 | 79.92955 | 34711 ft | 488 kts | 71° |
| 2026-04-24 11:21 | 24.82283 | 80.00138 | 34708 ft | 489 kts | 76° |
| 2026-04-24 11:22 | 24.83920 | 80.07408 | 34711 ft | 489 kts | 76° |
| 2026-04-24 11:22 | 24.85555 | 80.14674 | 34715 ft | 489 kts | 76° |
| 2026-04-24 11:23 | 24.87171 | 80.21945 | 34719 ft | 489 kts | 76° |
| 2026-04-24 11:23 | 24.88783 | 80.29216 | 34721 ft | 489 kts | 76° |
| 2026-04-24 11:24 | 24.90402 | 80.36492 | 34721 ft | 489 kts | 76° |
| 2026-04-24 11:24 | 24.92017 | 80.43770 | 34721 ft | 489 kts | 76° |
| 2026-04-24 11:25 | 24.93626 | 80.51055 | 34721 ft | 489 kts | 76° |
| 2026-04-24 11:25 | 24.95231 | 80.58309 | 34714 ft | 490 kts | 76° |
| 2026-04-24 11:26 | 24.96843 | 80.65624 | 34708 ft | 491 kts | 76° |
| 2026-04-24 11:26 | 24.98447 | 80.72937 | 34711 ft | 491 kts | 76° |
| 2026-04-24 11:27 | 25.00048 | 80.80254 | 34713 ft | 490 kts | 76° |
| 2026-04-24 11:27 | 25.01641 | 80.87563 | 34715 ft | 490 kts | 76° |
| 2026-04-24 11:28 | 25.03241 | 80.94862 | 34715 ft | 490 kts | 76° |
| 2026-04-24 11:28 | 25.04870 | 81.02156 | 34710 ft | 490 kts | 76° |
| 2026-04-24 11:29 | 25.06503 | 81.09453 | 34704 ft | 490 kts | 76° |
| 2026-04-24 11:29 | 25.08127 | 81.16751 | 34705 ft | 490 kts | 76° |
| 2026-04-24 11:30 | 25.09746 | 81.24063 | 34703 ft | 490 kts | 76° |
| 2026-04-24 11:30 | 25.11362 | 81.31370 | 34703 ft | 491 kts | 76° |
| 2026-04-24 11:31 | 25.12967 | 81.38694 | 34700 ft | 491 kts | 76° |
| 2026-04-24 11:31 | 25.14303 | 81.44788 | 34700 ft | 492 kts | 76° |
| 2026-04-24 11:32 | 25.15964 | 81.52128 | 34695 ft | 492 kts | 75° |
| 2026-04-24 11:32 | 25.17940 | 81.60636 | 34704 ft | 493 kts | 75° |
| 2026-04-24 11:33 | 25.19356 | 81.66783 | 34704 ft | 493 kts | 75° |
| 2026-04-24 11:33 | 25.21033 | 81.74125 | 34697 ft | 494 kts | 75° |
| 2026-04-24 11:34 | 25.22702 | 81.81481 | 34693 ft | 494 kts | 75° |
| 2026-04-24 11:34 | 25.24360 | 81.88796 | 34692 ft | 494 kts | 75° |
| 2026-04-24 11:35 | 25.26028 | 81.96171 | 34693 ft | 494 kts | 76° |
| 2026-04-24 11:35 | 25.27684 | 82.03542 | 34694 ft | 494 kts | 76° |
| 2026-04-24 11:36 | 25.29343 | 82.10915 | 34695 ft | 495 kts | 76° |
| 2026-04-24 11:36 | 25.31006 | 82.18297 | 34696 ft | 495 kts | 76° |
| 2026-04-24 11:37 | 25.32661 | 82.25687 | 34699 ft | 495 kts | 76° |
| 2026-04-24 11:37 | 25.34270 | 82.33096 | 34704 ft | 495 kts | 76° |
| 2026-04-24 11:38 | 25.35833 | 82.40508 | 34701 ft | 495 kts | 77° |
| 2026-04-24 11:38 | 25.37392 | 82.47932 | 34690 ft | 496 kts | 76° |
| 2026-04-24 11:39 | 25.38970 | 82.55371 | 34685 ft | 497 kts | 76° |
| 2026-04-24 11:39 | 25.40556 | 82.62811 | 34687 ft | 497 kts | 76° |
| 2026-04-24 11:40 | 25.42118 | 82.70220 | 34689 ft | 497 kts | 77° |
| 2026-04-24 11:40 | 25.43692 | 82.77721 | 34690 ft | 498 kts | 76° |
| 2026-04-24 11:41 | 25.45759 | 82.85005 | 34684 ft | 496 kts | 62° |
| 2026-04-24 11:41 | 25.49578 | 82.91226 | 34711 ft | 490 kts | 46° |
| 2026-04-24 11:42 | 25.54068 | 82.96891 | 34724 ft | 489 kts | 46° |
| 2026-04-24 11:42 | 25.58543 | 83.02550 | 34724 ft | 488 kts | 46° |
| 2026-04-24 11:43 | 25.62992 | 83.08214 | 34721 ft | 487 kts | 46° |
| 2026-04-24 11:43 | 25.67442 | 83.13874 | 34718 ft | 487 kts | 46° |
| 2026-04-24 11:44 | 25.71892 | 83.19540 | 34711 ft | 486 kts | 46° |
| 2026-04-24 11:44 | 25.76319 | 83.25189 | 34696 ft | 479 kts | 46° |
| 2026-04-24 11:45 | 25.80644 | 83.30704 | 34706 ft | 470 kts | 46° |
| 2026-04-24 11:45 | 25.84956 | 83.36072 | 34696 ft | 463 kts | 46° |
| 2026-04-24 11:46 | 25.89255 | 83.41394 | 34701 ft | 462 kts | 46° |
| 2026-04-24 11:46 | 25.93541 | 83.46730 | 34696 ft | 462 kts | 46° |
| 2026-04-24 11:47 | 25.97784 | 83.52039 | 34696 ft | 462 kts | 46° |
| 2026-04-24 11:47 | 26.02058 | 83.57400 | 34688 ft | 463 kts | 46° |
| 2026-04-24 11:48 | 26.06351 | 83.62749 | 34684 ft | 463 kts | 45° |
| 2026-04-24 11:48 | 26.10674 | 83.68076 | 34688 ft | 464 kts | 45° |
| 2026-04-24 11:49 | 26.15000 | 83.73400 | 34714 ft | 463 kts | 46° |
| 2026-04-24 11:49 | 26.19297 | 83.78721 | 34727 ft | 461 kts | 46° |
| 2026-04-24 11:50 | 26.23562 | 83.84025 | 34725 ft | 459 kts | 46° |
| 2026-04-24 11:50 | 26.27822 | 83.89314 | 34722 ft | 457 kts | 46° |
| 2026-04-24 11:51 | 26.29945 | 83.91937 | 34543 ft | 454 kts | 46° |
| 2026-04-24 11:51 | 26.32051 | 83.94534 | 34310 ft | 449 kts | 46° |
| 2026-04-24 11:51 | 26.34137 | 83.97103 | 34078 ft | 446 kts | 46° |
| 2026-04-24 11:51 | 26.36214 | 83.99660 | 33844 ft | 443 kts | 46° |
| 2026-04-24 11:52 | 26.38276 | 84.02200 | 33617 ft | 441 kts | 46° |
| 2026-04-24 11:52 | 26.40328 | 84.04729 | 33358 ft | 439 kts | 46° |
| 2026-04-24 11:52 | 26.42369 | 84.07249 | 33093 ft | 436 kts | 46° |
| 2026-04-24 11:52 | 26.44361 | 84.09716 | 32676 ft | 432 kts | 46° |
| 2026-04-24 11:53 | 26.46363 | 84.12201 | 32160 ft | 430 kts | 46° |
| 2026-04-24 11:53 | 26.48359 | 84.14679 | 31653 ft | 427 kts | 46° |
| 2026-04-24 11:53 | 26.50341 | 84.17143 | 31154 ft | 425 kts | 46° |
| 2026-04-24 11:53 | 26.52316 | 84.19598 | 30656 ft | 423 kts | 46° |
| 2026-04-24 11:54 | 26.54279 | 84.22037 | 30185 ft | 421 kts | 46° |
| 2026-04-24 11:54 | 26.56230 | 84.24461 | 29693 ft | 419 kts | 46° |
| 2026-04-24 11:54 | 26.58175 | 84.26875 | 29196 ft | 416 kts | 46° |
| 2026-04-24 11:54 | 26.60098 | 84.29263 | 28746 ft | 412 kts | 46° |
| 2026-04-24 11:55 | 26.62011 | 84.31641 | 28290 ft | 408 kts | 46° |
| 2026-04-24 11:55 | 26.63898 | 84.33991 | 27867 ft | 405 kts | 46° |
| 2026-04-24 11:55 | 26.65773 | 84.36331 | 27439 ft | 402 kts | 46° |
| 2026-04-24 11:55 | 26.67638 | 84.38647 | 27017 ft | 399 kts | 46° |
| 2026-04-24 11:56 | 26.69495 | 84.40939 | 26590 ft | 396 kts | 46° |
| 2026-04-24 11:56 | 26.71341 | 84.43212 | 26142 ft | 394 kts | 46° |
| 2026-04-24 11:56 | 26.73181 | 84.45475 | 25701 ft | 392 kts | 46° |
| 2026-04-24 11:56 | 26.75010 | 84.47729 | 25243 ft | 391 kts | 46° |
| 2026-04-24 11:57 | 26.76831 | 84.49977 | 24867 ft | 388 kts | 46° |
| 2026-04-24 11:57 | 26.78629 | 84.52201 | 24734 ft | 385 kts | 46° |
| 2026-04-24 11:57 | 26.80425 | 84.54427 | 24758 ft | 385 kts | 46° |
| 2026-04-24 11:57 | 26.82223 | 84.56657 | 24519 ft | 386 kts | 46° |
| 2026-04-24 11:58 | 26.84013 | 84.58878 | 23447 ft | 394 kts | 46° |
| 2026-04-24 11:58 | 26.85859 | 84.61164 | 22422 ft | 396 kts | 46° |
| 2026-04-24 11:58 | 26.87699 | 84.63444 | 21915 ft | 392 kts | 46° |
| 2026-04-24 11:58 | 26.89520 | 84.65706 | 21458 ft | 390 kts | 46° |
| 2026-04-24 11:59 | 26.91333 | 84.67959 | 21014 ft | 388 kts | 46° |
| 2026-04-24 11:59 | 26.93138 | 84.70200 | 20572 ft | 386 kts | 46° |
| 2026-04-24 11:59 | 26.94933 | 84.72430 | 20104 ft | 385 kts | 46° |
| 2026-04-24 11:59 | 26.96720 | 84.74652 | 19642 ft | 384 kts | 46° |
| 2026-04-24 12:00 | 26.98507 | 84.76873 | 19190 ft | 382 kts | 46° |
| 2026-04-24 12:00 | 27.00283 | 84.79084 | 18781 ft | 380 kts | 46° |
| 2026-04-24 12:00 | 27.02067 | 84.81262 | 18356 ft | 380 kts | 45° |
| 2026-04-24 12:00 | 27.03866 | 84.83404 | 17947 ft | 377 kts | 45° |
| 2026-04-24 12:01 | 27.05672 | 84.85526 | 17584 ft | 373 kts | 44° |
| 2026-04-24 12:01 | 27.07456 | 84.87614 | 17190 ft | 370 kts | 44° |
| 2026-04-24 12:01 | 27.09227 | 84.89691 | 16777 ft | 368 kts | 44° |
| 2026-04-24 12:01 | 27.10982 | 84.91763 | 16368 ft | 364 kts | 44° |
| 2026-04-24 12:02 | 27.12706 | 84.93809 | 15725 ft | 357 kts | 45° |
| 2026-04-24 12:02 | 27.14381 | 84.95805 | 15338 ft | 345 kts | 44° |
| 2026-04-24 12:02 | 27.15996 | 84.97731 | 14972 ft | 333 kts | 45° |
| 2026-04-24 12:02 | 27.17451 | 84.99718 | 14569 ft | 330 kts | 50° |
| 2026-04-24 12:03 | 27.18863 | 85.01751 | 14276 ft | 325 kts | 50° |
| 2026-04-24 12:03 | 27.20219 | 85.03702 | 13776 ft | 320 kts | 50° |
| 2026-04-24 12:03 | 27.21575 | 85.05651 | 13278 ft | 313 kts | 50° |
| 2026-04-24 12:03 | 27.22895 | 85.07552 | 12858 ft | 303 kts | 50° |
| 2026-04-24 12:04 | 27.24171 | 85.09391 | 12477 ft | 294 kts | 50° |
| 2026-04-24 12:04 | 27.25408 | 85.11174 | 12090 ft | 285 kts | 50° |
| 2026-04-24 12:04 | 27.26610 | 85.12911 | 11750 ft | 277 kts | 50° |
| 2026-04-24 12:04 | 27.27792 | 85.14618 | 11434 ft | 277 kts | 50° |
| 2026-04-24 12:05 | 27.28978 | 85.16317 | 11065 ft | 273 kts | 47° |
| 2026-04-24 12:05 | 27.30335 | 85.17761 | 10718 ft | 264 kts | 34° |
| 2026-04-24 12:05 | 27.31878 | 85.18796 | 10374 ft | 253 kts | 21° |
| 2026-04-24 12:05 | 27.33477 | 85.19522 | 10050 ft | 244 kts | 19° |
| 2026-04-24 12:06 | 27.35029 | 85.20223 | 9794 ft | 234 kts | 20° |
| 2026-04-24 12:06 | 27.36460 | 85.20878 | 9709 ft | 219 kts | 20° |
| 2026-04-24 12:06 | 27.37859 | 85.21516 | 9653 ft | 215 kts | 19° |
| 2026-04-24 12:06 | 27.39237 | 85.22144 | 9540 ft | 213 kts | 19° |
| 2026-04-24 12:07 | 27.40601 | 85.22767 | 9458 ft | 210 kts | 20° |
| 2026-04-24 12:07 | 27.41950 | 85.23381 | 9368 ft | 209 kts | 20° |
| 2026-04-24 12:07 | 27.43277 | 85.23985 | 9278 ft | 201 kts | 20° |
| 2026-04-24 12:07 | 27.44564 | 85.24553 | 9181 ft | 197 kts | 16° |
| 2026-04-24 12:08 | 27.45905 | 85.24850 | 8953 ft | 195 kts | 2° |
| 2026-04-24 12:08 | 27.47249 | 85.24779 | 8743 ft | 193 kts | 348° |
| 2026-04-24 12:08 | 27.48553 | 85.24407 | 8522 ft | 194 kts | 343° |
| 2026-04-24 12:08 | 27.49839 | 85.24016 | 8273 ft | 187 kts | 343° |
| 2026-04-24 12:09 | 27.51056 | 85.23704 | 8077 ft | 171 kts | 350° |
| 2026-04-24 12:09 | 27.52206 | 85.23629 | 7889 ft | 161 kts | 359° |
| 2026-04-24 12:09 | 27.53300 | 85.23770 | 7701 ft | 160 kts | 9° |
| 2026-04-24 12:09 | 27.54385 | 85.24125 | 7508 ft | 161 kts | 19° |
| 2026-04-24 12:10 | 27.55385 | 85.24669 | 7314 ft | 163 kts | 27° |
| 2026-04-24 12:10 | 27.56309 | 85.25409 | 7116 ft | 164 kts | 37° |
| 2026-04-24 12:10 | 27.57179 | 85.26236 | 6911 ft | 163 kts | 36° |
| 2026-04-24 12:11 | 27.58837 | 85.27996 | 6534 ft | 166 kts | 49° |
| 2026-04-24 12:11 | 27.59491 | 85.29068 | 6312 ft | 166 kts | 58° |
| 2026-04-24 12:11 | 27.60122 | 85.30163 | 6102 ft | 166 kts | 49° |
| 2026-04-24 12:11 | 27.60885 | 85.31134 | 5885 ft | 165 kts | 42° |
| 2026-04-24 12:12 | 27.61755 | 85.31976 | 5713 ft | 164 kts | 35° |
| 2026-04-24 12:12 | 27.62696 | 85.32668 | 5504 ft | 160 kts | 26° |
| 2026-04-24 12:12 | 27.63688 | 85.33204 | 5285 ft | 157 kts | 20° |
| 2026-04-24 12:12 | 27.64698 | 85.33660 | 5099 ft | 156 kts | 20° |
| 2026-04-24 12:13 | 27.65696 | 85.34117 | 4918 ft | 154 kts | 18° |
| 2026-04-24 12:13 | 27.66698 | 85.34552 | 4760 ft | 154 kts | 17° |
| 2026-04-24 12:13 | 27.67690 | 85.35007 | 4553 ft | 153 kts | 18° |
| 2026-04-24 12:13 | 27.68676 | 85.35459 | 4406 ft | 153 kts | 18° |
| 2026-04-24 12:14 | 27.69532 | 85.35847 | 4397 ft | 96 kts | 24° |
| 2026-04-24 12:14 | 27.69946 | 85.36043 | 4394 ft | 45 kts | 21° |
| 2026-04-24 12:14 | 27.70125 | 85.36118 | 4397 ft | 16 kts | 8° |
| 2026-04-24 12:14 | 27.70182 | 85.36111 | 4398 ft | 4 kts | 342° |
| 2026-04-24 12:15 | 27.70201 | 85.36073 | 4398 ft | 8 kts | 277° |
| 2026-04-24 12:15 | 27.70152 | 85.36024 | 4398 ft | 13 kts | 198° |
| 2026-04-24 12:15 | 27.70064 | 85.35983 | 4397 ft | 14 kts | 205° |
| 2026-04-24 12:15 | 27.69972 | 85.35929 | 4397 ft | 15 kts | 228° |
| 2026-04-24 12:16 | 27.69988 | 85.35839 | 4398 ft | 8 kts | 293° |
| 2026-04-24 12:16 | 27.69988 | 85.35837 | 4398 ft | 0 kts | 293° |